sensor_id;sensor_type;location;lat;lon;timestamp;pressure;altitude;pressure_sealevel;temperature;humidity
26635;BME280;14490;54.208;37.686;2022-07-21T00:00:19;98062.03;;;15.21;100.00
26635;BME280;14490;54.208;37.686;2022-07-21T00:02:47;98038.13;;;15.10;100.00
26635;BME280;14490;54.208;37.686;2022-07-21T00:05:18;98052.16;;;15.35;100.00
26635;BME280;14490;54.208;37.686;2022-07-21T00:07:46;98052.91;;;15.44;100.00
26635;BME280;14490;54.208;37.686;2022-07-21T00:10:15;98041.72;;;15.32;99.80
26635;BME280;14490;54.208;37.686;2022-07-21T00:12:44;98056.00;;;15.41;99.88
26635;BME280;14490;54.208;37.686;2022-07-21T00:15:13;98050.41;;;15.27;99.93
26635;BME280;14490;54.208;37.686;2022-07-21T00:17:42;98070.63;;;15.25;100.00
26635;BME280;14490;54.208;37.686;2022-07-21T00:20:11;98067.69;;;15.26;100.00
26635;BME280;14490;54.208;37.686;2022-07-21T00:22:42;98055.75;;;15.21;100.00
26635;BME280;14490;54.208;37.686;2022-07-21T00:25:11;98059.41;;;15.28;100.00
26635;BME280;14490;54.208;37.686;2022-07-21T00:27:40;98055.47;;;15.30;100.00
26635;BME280;14490;54.208;37.686;2022-07-21T00:30:10;98062.56;;;15.31;100.00
26635;BME280;14490;54.208;37.686;2022-07-21T00:32:39;98049.66;;;15.33;100.00
26635;BME280;14490;54.208;37.686;2022-07-21T00:35:09;98036.09;;;15.33;100.00
26635;BME280;14490;54.208;37.686;2022-07-21T00:37:38;97986.75;;;15.02;100.00
26635;BME280;14490;54.208;37.686;2022-07-21T00:40:10;98050.00;;;15.45;100.00
26635;BME280;14490;54.208;37.686;2022-07-21T00:42:42;98047.28;;;15.45;100.00
26635;BME280;14490;54.208;37.686;2022-07-21T00:45:11;98048.72;;;15.56;100.00
26635;BME280;14490;54.208;37.686;2022-07-21T00:47:40;98047.03;;;15.55;99.77
26635;BME280;14490;54.208;37.686;2022-07-21T00:50:10;98028.53;;;15.44;99.86
26635;BME280;14490;54.208;37.686;2022-07-21T00:52:41;98043.09;;;15.43;100.00
26635;BME280;14490;54.208;37.686;2022-07-21T00:55:13;98049.16;;;15.45;100.00
26635;BME280;14490;54.208;37.686;2022-07-21T00:57:42;98047.66;;;15.42;100.00
26635;BME280;14490;54.208;37.686;2022-07-21T01:00:13;98018.91;;;15.26;100.00
26635;BME280;14490;54.208;37.686;2022-07-21T01:02:42;98023.19;;;15.36;100.00
26635;BME280;14490;54.208;37.686;2022-07-21T01:05:12;98028.44;;;15.37;100.00
26635;BME280;14490;54.208;37.686;2022-07-21T01:07:47;97995.88;;;15.16;100.00
26635;BME280;14490;54.208;37.686;2022-07-21T01:10:17;97973.47;;;15.07;100.00
26635;BME280;14490;54.208;37.686;2022-07-21T01:12:46;98039.66;;;15.49;100.00
26635;BME280;14490;54.208;37.686;2022-07-21T01:15:16;98046.84;;;15.56;100.00
26635;BME280;14490;54.208;37.686;2022-07-21T01:17:45;98044.56;;;15.60;100.00
26635;BME280;14490;54.208;37.686;2022-07-21T01:20:15;97926.34;;;14.87;99.94
26635;BME280;14490;54.208;37.686;2022-07-21T01:22:46;98019.34;;;15.45;100.00
26635;BME280;14490;54.208;37.686;2022-07-21T01:25:16;98045.78;;;15.57;100.00
26635;BME280;14490;54.208;37.686;2022-07-21T01:27:44;98029.66;;;15.35;100.00
26635;BME280;14490;54.208;37.686;2022-07-21T01:30:12;98038.97;;;15.47;100.00
26635;BME280;14490;54.208;37.686;2022-07-21T01:32:41;98008.78;;;15.35;100.00
26635;BME280;14490;54.208;37.686;2022-07-21T01:35:11;98034.06;;;15.50;100.00
26635;BME280;14490;54.208;37.686;2022-07-21T01:37:41;98033.28;;;15.56;100.00
26635;BME280;14490;54.208;37.686;2022-07-21T01:40:14;98034.09;;;15.57;100.00
26635;BME280;14490;54.208;37.686;2022-07-21T01:43:00;98035.41;;;15.61;100.00
26635;BME280;14490;54.208;37.686;2022-07-21T01:45:29;98005.44;;;15.33;100.00
26635;BME280;14490;54.208;37.686;2022-07-21T01:47:57;98037.88;;;15.56;100.00
26635;BME280;14490;54.208;37.686;2022-07-21T01:50:26;98031.22;;;15.58;100.00
26635;BME280;14490;54.208;37.686;2022-07-21T01:52:55;98027.91;;;15.63;100.00
26635;BME280;14490;54.208;37.686;2022-07-21T01:55:26;97991.19;;;15.46;100.00
26635;BME280;14490;54.208;37.686;2022-07-21T01:57:55;97958.06;;;15.29;100.00
26635;BME280;14490;54.208;37.686;2022-07-21T02:00:23;97955.44;;;15.36;100.00
26635;BME280;14490;54.208;37.686;2022-07-21T02:02:51;98023.00;;;15.73;100.00
26635;BME280;14490;54.208;37.686;2022-07-21T02:05:19;97976.28;;;15.50;100.00
26635;BME280;14490;54.208;37.686;2022-07-21T02:07:47;97998.13;;;15.48;100.00
26635;BME280;14490;54.208;37.686;2022-07-21T02:10:15;98017.19;;;15.55;100.00
26635;BME280;14490;54.208;37.686;2022-07-21T02:12:44;98037.09;;;15.62;100.00
26635;BME280;14490;54.208;37.686;2022-07-21T02:15:12;98034.88;;;15.51;100.00
26635;BME280;14490;54.208;37.686;2022-07-21T02:17:40;98028.31;;;15.45;100.00
26635;BME280;14490;54.208;37.686;2022-07-21T02:20:09;98008.84;;;15.20;100.00
26635;BME280;14490;54.208;37.686;2022-07-21T02:22:37;98015.94;;;15.21;100.00
26635;BME280;14490;54.208;37.686;2022-07-21T02:25:06;98009.97;;;15.11;100.00
26635;BME280;14490;54.208;37.686;2022-07-21T02:27:34;98026.16;;;15.19;100.00
26635;BME280;14490;54.208;37.686;2022-07-21T02:30:04;97977.63;;;14.89;100.00
26635;BME280;14490;54.208;37.686;2022-07-21T02:32:32;97983.59;;;14.84;100.00
26635;BME280;14490;54.208;37.686;2022-07-21T02:35:00;98015.53;;;15.03;100.00
26635;BME280;14490;54.208;37.686;2022-07-21T02:37:28;97962.16;;;14.68;100.00
26635;BME280;14490;54.208;37.686;2022-07-21T02:39:56;98003.75;;;14.96;100.00
26635;BME280;14490;54.208;37.686;2022-07-21T02:42:24;98018.88;;;15.05;100.00
26635;BME280;14490;54.208;37.686;2022-07-21T02:44:51;98013.38;;;14.99;100.00
26635;BME280;14490;54.208;37.686;2022-07-21T02:47:20;98018.88;;;15.05;100.00
26635;BME280;14490;54.208;37.686;2022-07-21T02:49:48;98026.91;;;15.13;100.00
26635;BME280;14490;54.208;37.686;2022-07-21T02:52:15;98006.25;;;15.12;100.00
26635;BME280;14490;54.208;37.686;2022-07-21T02:54:43;98024.47;;;15.18;100.00
26635;BME280;14490;54.208;37.686;2022-07-21T02:57:11;98020.81;;;15.11;100.00
26635;BME280;14490;54.208;37.686;2022-07-21T02:59:38;98017.56;;;15.16;100.00
26635;BME280;14490;54.208;37.686;2022-07-21T03:02:06;98001.22;;;15.09;100.00
26635;BME280;14490;54.208;37.686;2022-07-21T03:04:35;97944.97;;;14.61;100.00
26635;BME280;14490;54.208;37.686;2022-07-21T03:07:02;97998.41;;;15.03;100.00
26635;BME280;14490;54.208;37.686;2022-07-21T03:09:31;98022.59;;;15.19;100.00
26635;BME280;14490;54.208;37.686;2022-07-21T03:11:58;97922.69;;;14.59;100.00
26635;BME280;14490;54.208;37.686;2022-07-21T03:14:26;97968.28;;;14.91;100.00
26635;BME280;14490;54.208;37.686;2022-07-21T03:16:54;98000.38;;;15.09;100.00
26635;BME280;14490;54.208;37.686;2022-07-21T03:19:23;98026.19;;;15.26;100.00
26635;BME280;14490;54.208;37.686;2022-07-21T03:21:52;97994.94;;;15.09;100.00
26635;BME280;14490;54.208;37.686;2022-07-21T03:24:19;98028.16;;;15.32;100.00
26635;BME280;14490;54.208;37.686;2022-07-21T03:26:47;98020.88;;;15.32;100.00
26635;BME280;14490;54.208;37.686;2022-07-21T03:29:15;98028.06;;;15.40;100.00
26635;BME280;14490;54.208;37.686;2022-07-21T03:31:43;98027.50;;;15.30;100.00
26635;BME280;14490;54.208;37.686;2022-07-21T03:34:10;98011.03;;;15.10;100.00
26635;BME280;14490;54.208;37.686;2022-07-21T03:36:38;97980.72;;;14.86;100.00
26635;BME280;14490;54.208;37.686;2022-07-21T03:39:07;98028.09;;;15.11;100.00
26635;BME280;14490;54.208;37.686;2022-07-21T03:41:35;98033.09;;;15.07;100.00
26635;BME280;14490;54.208;37.686;2022-07-21T03:44:03;97952.63;;;14.72;100.00
26635;BME280;14490;54.208;37.686;2022-07-21T03:46:30;98027.56;;;15.15;100.00
26635;BME280;14490;54.208;37.686;2022-07-21T03:48:58;98012.69;;;15.11;100.00
26635;BME280;14490;54.208;37.686;2022-07-21T03:51:26;98003.94;;;15.09;100.00
26635;BME280;14490;54.208;37.686;2022-07-21T03:53:53;97987.13;;;14.99;100.00
26635;BME280;14490;54.208;37.686;2022-07-21T03:56:22;98013.50;;;15.26;100.00
26635;BME280;14490;54.208;37.686;2022-07-21T03:58:50;98007.19;;;15.19;100.00
26635;BME280;14490;54.208;37.686;2022-07-21T04:01:17;98009.66;;;15.36;100.00
26635;BME280;14490;54.208;37.686;2022-07-21T04:03:45;98005.31;;;15.56;100.00
26635;BME280;14490;54.208;37.686;2022-07-21T04:06:12;98009.81;;;15.49;100.00
26635;BME280;14490;54.208;37.686;2022-07-21T04:08:40;97974.47;;;15.42;100.00
26635;BME280;14490;54.208;37.686;2022-07-21T04:11:08;98002.94;;;15.67;100.00
26635;BME280;14490;54.208;37.686;2022-07-21T04:13:40;97998.81;;;15.71;100.00
26635;BME280;14490;54.208;37.686;2022-07-21T04:16:07;97990.00;;;15.48;100.00
26635;BME280;14490;54.208;37.686;2022-07-21T04:18:39;97986.59;;;15.61;100.00
26635;BME280;14490;54.208;37.686;2022-07-21T04:21:07;98005.00;;;15.87;100.00
26635;BME280;14490;54.208;37.686;2022-07-21T04:23:35;97955.22;;;15.52;100.00
26635;BME280;14490;54.208;37.686;2022-07-21T04:26:02;97993.41;;;15.78;100.00
26635;BME280;14490;54.208;37.686;2022-07-21T04:28:30;97981.75;;;15.77;100.00
26635;BME280;14490;54.208;37.686;2022-07-21T04:31:00;98003.22;;;16.00;100.00
26635;BME280;14490;54.208;37.686;2022-07-21T04:33:28;97956.59;;;15.90;100.00
26635;BME280;14490;54.208;37.686;2022-07-21T04:35:56;97949.13;;;15.92;100.00
26635;BME280;14490;54.208;37.686;2022-07-21T04:38:23;97983.28;;;16.14;100.00
26635;BME280;14490;54.208;37.686;2022-07-21T04:40:51;97993.47;;;16.33;100.00
26635;BME280;14490;54.208;37.686;2022-07-21T04:43:18;97988.03;;;16.33;100.00
26635;BME280;14490;54.208;37.686;2022-07-21T04:45:46;97988.13;;;16.47;100.00
26635;BME280;14490;54.208;37.686;2022-07-21T04:48:15;97952.78;;;16.68;100.00
26635;BME280;14490;54.208;37.686;2022-07-21T04:50:43;97967.00;;;17.30;100.00
26635;BME280;14490;54.208;37.686;2022-07-21T04:53:11;97895.47;;;17.30;100.00
26635;BME280;14490;54.208;37.686;2022-07-21T04:55:38;97975.09;;;17.78;98.89
26635;BME280;14490;54.208;37.686;2022-07-21T04:58:06;97967.13;;;17.76;97.39
26635;BME280;14490;54.208;37.686;2022-07-21T05:00:34;97955.19;;;17.58;96.52
26635;BME280;14490;54.208;37.686;2022-07-21T05:03:01;97934.22;;;17.52;96.50
26635;BME280;14490;54.208;37.686;2022-07-21T05:05:31;97967.38;;;18.14;95.46
26635;BME280;14490;54.208;37.686;2022-07-21T05:07:58;97961.91;;;18.01;94.17
26635;BME280;14490;54.208;37.686;2022-07-21T05:10:26;97965.25;;;17.77;93.62
26635;BME280;14490;54.208;37.686;2022-07-21T05:12:53;97893.44;;;17.38;94.02
26635;BME280;14490;54.208;37.686;2022-07-21T05:15:21;97970.28;;;18.06;93.55
26635;BME280;14490;54.208;37.686;2022-07-21T05:17:49;97904.53;;;17.50;92.19
26635;BME280;14490;54.208;37.686;2022-07-21T05:20:16;97872.91;;;17.29;92.34
26635;BME280;14490;54.208;37.686;2022-07-21T05:22:46;97930.09;;;17.62;91.97
26635;BME280;14490;54.208;37.686;2022-07-21T05:25:13;97962.34;;;17.72;91.85
26635;BME280;14490;54.208;37.686;2022-07-21T05:27:41;97932.16;;;17.54;91.85
26635;BME280;14490;54.208;37.686;2022-07-21T05:30:10;97969.84;;;17.70;92.09
26635;BME280;14490;54.208;37.686;2022-07-21T05:32:38;97966.31;;;17.63;91.93
26635;BME280;14490;54.208;37.686;2022-07-21T05:35:06;97956.63;;;17.54;91.84
26635;BME280;14490;54.208;37.686;2022-07-21T05:37:37;97968.16;;;17.56;92.10
26635;BME280;14490;54.208;37.686;2022-07-21T05:40:09;97970.16;;;17.34;91.91
26635;BME280;14490;54.208;37.686;2022-07-21T05:42:37;97969.53;;;17.25;92.54
26635;BME280;14490;54.208;37.686;2022-07-21T05:45:07;97973.94;;;17.26;92.97
26635;BME280;14490;54.208;37.686;2022-07-21T05:47:36;97872.53;;;16.72;92.89
26635;BME280;14490;54.208;37.686;2022-07-21T05:50:04;97971.41;;;17.31;93.27
26635;BME280;14490;54.208;37.686;2022-07-21T05:52:32;97961.78;;;17.22;93.09
26635;BME280;14490;54.208;37.686;2022-07-21T05:55:00;97958.00;;;17.17;93.03
26635;BME280;14490;54.208;37.686;2022-07-21T05:57:29;97921.59;;;17.11;92.62
26635;BME280;14490;54.208;37.686;2022-07-21T05:59:56;97961.41;;;17.52;92.56
26635;BME280;14490;54.208;37.686;2022-07-21T06:02:24;97944.31;;;17.71;92.02
26635;BME280;14490;54.208;37.686;2022-07-21T06:04:55;97958.97;;;17.76;90.93
26635;BME280;14490;54.208;37.686;2022-07-21T06:07:22;97952.25;;;18.18;90.50
26635;BME280;14490;54.208;37.686;2022-07-21T06:09:50;97948.06;;;18.35;89.32
26635;BME280;14490;54.208;37.686;2022-07-21T06:12:18;97904.09;;;18.25;88.65
26635;BME280;14490;54.208;37.686;2022-07-21T06:14:47;97950.34;;;18.65;87.54
26635;BME280;14490;54.208;37.686;2022-07-21T06:17:15;97949.31;;;18.52;86.96
26635;BME280;14490;54.208;37.686;2022-07-21T06:19:43;97951.81;;;18.61;86.90
26635;BME280;14490;54.208;37.686;2022-07-21T06:22:10;97928.78;;;18.43;86.29
26635;BME280;14490;54.208;37.686;2022-07-21T06:24:39;97947.19;;;18.68;85.41
26635;BME280;14490;54.208;37.686;2022-07-21T06:27:06;97945.50;;;18.67;84.64
26635;BME280;14490;54.208;37.686;2022-07-21T06:29:34;97954.75;;;18.66;83.55
26635;BME280;14490;54.208;37.686;2022-07-21T06:32:04;97953.09;;;18.51;83.89
26635;BME280;14490;54.208;37.686;2022-07-21T06:34:32;97938.84;;;18.36;84.23
26635;BME280;14490;54.208;37.686;2022-07-21T06:36:59;97934.47;;;18.29;84.76
26635;BME280;14490;54.208;37.686;2022-07-21T06:39:27;97946.19;;;18.16;84.96
26635;BME280;14490;54.208;37.686;2022-07-21T06:41:55;97951.88;;;18.01;85.67
26635;BME280;14490;54.208;37.686;2022-07-21T06:44:22;97956.47;;;17.94;86.11
26635;BME280;14490;54.208;37.686;2022-07-21T06:46:50;97946.00;;;17.85;86.34
26635;BME280;14490;54.208;37.686;2022-07-21T06:49:19;97934.91;;;17.86;86.38
26635;BME280;14490;54.208;37.686;2022-07-21T06:51:47;97952.28;;;17.92;85.94
26635;BME280;14490;54.208;37.686;2022-07-21T06:54:14;97952.28;;;17.92;85.41
26635;BME280;14490;54.208;37.686;2022-07-21T06:56:42;97936.75;;;18.25;84.86
26635;BME280;14490;54.208;37.686;2022-07-21T06:59:10;97899.41;;;18.45;83.84
26635;BME280;14490;54.208;37.686;2022-07-21T07:01:37;97926.06;;;18.57;82.30
26635;BME280;14490;54.208;37.686;2022-07-21T07:04:05;97948.03;;;18.62;82.23
26635;BME280;14490;54.208;37.686;2022-07-21T07:06:34;97949.72;;;18.56;82.52
26635;BME280;14490;54.208;37.686;2022-07-21T07:09:02;97952.00;;;18.66;82.46
26635;BME280;14490;54.208;37.686;2022-07-21T07:11:29;97936.09;;;18.63;82.38
26635;BME280;14490;54.208;37.686;2022-07-21T07:13:58;97910.75;;;18.42;82.37
26635;BME280;14490;54.208;37.686;2022-07-21T07:16:26;97937.56;;;18.52;82.61
26635;BME280;14490;54.208;37.686;2022-07-21T07:18:54;97958.94;;;18.62;82.81
26635;BME280;14490;54.208;37.686;2022-07-21T07:21:21;97960.63;;;18.56;82.55
26635;BME280;14490;54.208;37.686;2022-07-21T07:23:50;97954.56;;;18.54;83.05
26635;BME280;14490;54.208;37.686;2022-07-21T07:26:18;97956.22;;;18.55;83.33
26635;BME280;14490;54.208;37.686;2022-07-21T07:28:46;97955.59;;;18.46;84.09
26635;BME280;14490;54.208;37.686;2022-07-21T07:31:14;97961.25;;;18.51;84.41
26635;BME280;14490;54.208;37.686;2022-07-21T07:33:42;97964.19;;;18.37;84.93
26635;BME280;14490;54.208;37.686;2022-07-21T07:36:09;97959.38;;;18.32;85.61
26635;BME280;14490;54.208;37.686;2022-07-21T07:38:40;97856.38;;;18.10;84.89
26635;BME280;14490;54.208;37.686;2022-07-21T07:41:10;97920.97;;;18.67;84.28
26635;BME280;14490;54.208;37.686;2022-07-21T07:43:38;97949.44;;;19.28;83.21
26635;BME280;14490;54.208;37.686;2022-07-21T07:46:06;97890.75;;;19.19;82.17
26635;BME280;14490;54.208;37.686;2022-07-21T07:48:36;97957.25;;;19.62;81.42
26635;BME280;14490;54.208;37.686;2022-07-21T07:51:06;97963.75;;;19.93;80.21
26635;BME280;14490;54.208;37.686;2022-07-21T07:53:34;97959.97;;;19.94;79.74
26635;BME280;14490;54.208;37.686;2022-07-21T07:56:03;97935.09;;;20.02;78.90
26635;BME280;14490;54.208;37.686;2022-07-21T07:58:33;97888.47;;;19.79;78.08
26635;BME280;14490;54.208;37.686;2022-07-21T08:01:01;97943.44;;;20.56;77.08
26635;BME280;14490;54.208;37.686;2022-07-21T08:03:31;97885.91;;;20.51;76.24
26635;BME280;14490;54.208;37.686;2022-07-21T08:05:59;97944.41;;;20.98;75.27
26635;BME280;14490;54.208;37.686;2022-07-21T08:08:29;97935.50;;;20.73;74.56
26635;BME280;14490;54.208;37.686;2022-07-21T08:11:03;97949.22;;;20.48;73.95
26635;BME280;14490;54.208;37.686;2022-07-21T08:13:33;97818.50;;;19.59;74.11
26635;BME280;14490;54.208;37.686;2022-07-21T08:16:01;97923.53;;;20.49;74.17
26635;BME280;14490;54.208;37.686;2022-07-21T08:18:29;97864.72;;;20.04;74.27
26635;BME280;14490;54.208;37.686;2022-07-21T08:20:59;97946.06;;;20.20;74.60
26635;BME280;14490;54.208;37.686;2022-07-21T08:23:29;97864.59;;;19.36;74.80
26635;BME280;14490;54.208;37.686;2022-07-21T08:25:59;97956.78;;;19.97;75.58
26635;BME280;14490;54.208;37.686;2022-07-21T08:28:33;97967.88;;;20.02;75.45
26635;BME280;14490;54.208;37.686;2022-07-21T08:31:01;97880.97;;;19.36;76.03
26635;BME280;14490;54.208;37.686;2022-07-21T08:33:30;97847.28;;;19.55;75.39
26635;BME280;14490;54.208;37.686;2022-07-21T08:35:58;97976.22;;;20.38;74.88
26635;BME280;14490;54.208;37.686;2022-07-21T08:38:26;97981.13;;;20.30;74.87
26635;BME280;14490;54.208;37.686;2022-07-21T08:40:53;97983.56;;;20.38;74.55
26635;BME280;14490;54.208;37.686;2022-07-21T08:43:21;97954.31;;;20.13;74.71
26635;BME280;14490;54.208;37.686;2022-07-21T08:45:53;97959.28;;;20.23;74.52
26635;BME280;14490;54.208;37.686;2022-07-21T08:48:23;97967.66;;;20.28;74.17
26635;BME280;14490;54.208;37.686;2022-07-21T08:50:52;97980.72;;;20.26;74.27
26635;BME280;14490;54.208;37.686;2022-07-21T08:53:19;97970.31;;;20.10;74.44
26635;BME280;14490;54.208;37.686;2022-07-21T08:55:48;97892.59;;;19.25;75.00
26635;BME280;14490;54.208;37.686;2022-07-21T08:58:20;97994.00;;;19.60;75.94
26635;BME280;14490;54.208;37.686;2022-07-21T09:00:49;97974.16;;;19.33;76.70
26635;BME280;14490;54.208;37.686;2022-07-21T09:03:22;97967.09;;;19.19;77.14
26635;BME280;14490;54.208;37.686;2022-07-21T09:06:02;98008.56;;;19.34;77.79
26635;BME280;14490;54.208;37.686;2022-07-21T09:08:34;98006.09;;;19.39;77.97
26635;BME280;14490;54.208;37.686;2022-07-21T09:11:11;98002.16;;;19.67;77.65
26635;BME280;14490;54.208;37.686;2022-07-21T09:13:48;97991.94;;;19.87;76.79
26635;BME280;14490;54.208;37.686;2022-07-21T09:16:36;98005.53;;;19.93;76.76
26635;BME280;14490;54.208;37.686;2022-07-21T09:19:06;98006.09;;;20.02;76.83
26635;BME280;14490;54.208;37.686;2022-07-21T09:21:35;97971.59;;;19.83;76.75
26635;BME280;14490;54.208;37.686;2022-07-21T09:24:14;98006.22;;;20.13;76.78
26635;BME280;14490;54.208;37.686;2022-07-21T09:27:10;97990.59;;;20.27;75.85
26635;BME280;14490;54.208;37.686;2022-07-21T09:29:45;97999.81;;;20.33;74.95
26635;BME280;14490;54.208;37.686;2022-07-21T09:32:22;97977.59;;;19.91;75.46
26635;BME280;14490;54.208;37.686;2022-07-21T09:34:52;98008.13;;;20.13;75.62
26635;BME280;14490;54.208;37.686;2022-07-21T09:37:22;98010.28;;;20.04;75.80
26635;BME280;14490;54.208;37.686;2022-07-21T09:39:52;97986.25;;;19.57;77.39
26635;BME280;14490;54.208;37.686;2022-07-21T09:42:23;97985.75;;;19.22;79.13
26635;BME280;14490;54.208;37.686;2022-07-21T09:44:54;98023.25;;;19.33;80.02
26635;BME280;14490;54.208;37.686;2022-07-21T09:47:26;98024.97;;;19.28;80.87
26635;BME280;14490;54.208;37.686;2022-07-21T09:50:00;98035.84;;;19.34;81.00
26635;BME280;14490;54.208;37.686;2022-07-21T09:52:30;98031.53;;;19.20;81.67
26635;BME280;14490;54.208;37.686;2022-07-21T09:55:00;98032.09;;;19.35;81.24
26635;BME280;14490;54.208;37.686;2022-07-21T09:57:29;98005.66;;;19.42;80.78
26635;BME280;14490;54.208;37.686;2022-07-21T09:59:57;97952.97;;;19.35;80.54
26635;BME280;14490;54.208;37.686;2022-07-21T10:02:29;98012.88;;;19.61;80.77
26635;BME280;14490;54.208;37.686;2022-07-21T10:05:03;98021.19;;;19.73;80.90
26635;BME280;14490;54.208;37.686;2022-07-21T10:07:32;98034.09;;;20.22;80.20
26635;BME280;14490;54.208;37.686;2022-07-21T10:10:03;98029.06;;;20.26;78.98
26635;BME280;14490;54.208;37.686;2022-07-21T10:12:32;98020.22;;;20.30;78.41
26635;BME280;14490;54.208;37.686;2022-07-21T10:15:00;97980.44;;;20.34;78.33
26635;BME280;14490;54.208;37.686;2022-07-21T10:17:29;97994.38;;;20.51;78.07
26635;BME280;14490;54.208;37.686;2022-07-21T10:20:03;98010.00;;;20.44;77.67
26635;BME280;14490;54.208;37.686;2022-07-21T10:22:51;97978.06;;;20.13;77.93
26635;BME280;14490;54.208;37.686;2022-07-21T10:25:25;97990.97;;;20.31;77.66
26635;BME280;14490;54.208;37.686;2022-07-21T10:28:17;98022.06;;;20.05;78.25
26635;BME280;14490;54.208;37.686;2022-07-21T10:30:49;98027.22;;;20.13;78.09
26635;BME280;14490;54.208;37.686;2022-07-21T10:33:20;98036.22;;;20.20;77.93
26635;BME280;14490;54.208;37.686;2022-07-21T10:35:50;97994.94;;;19.79;77.09
26635;BME280;14490;54.208;37.686;2022-07-21T10:38:26;97906.56;;;19.48;77.79
26635;BME280;14490;54.208;37.686;2022-07-21T10:40:56;97833.88;;;18.85;78.32
26635;BME280;14490;54.208;37.686;2022-07-21T10:43:41;98026.63;;;20.11;78.17
26635;BME280;14490;54.208;37.686;2022-07-21T10:46:32;98018.59;;;20.16;76.96
26635;BME280;14490;54.208;37.686;2022-07-21T10:49:04;98021.47;;;20.28;77.15
26635;BME280;14490;54.208;37.686;2022-07-21T10:51:34;98030.25;;;20.36;77.57
26635;BME280;14490;54.208;37.686;2022-07-21T10:54:23;98005.47;;;20.31;76.65
26635;BME280;14490;54.208;37.686;2022-07-21T10:57:27;98026.97;;;20.70;74.38
26635;BME280;14490;54.208;37.686;2022-07-21T11:00:17;98030.91;;;20.56;75.16
26635;BME280;14490;54.208;37.686;2022-07-21T11:02:47;98009.19;;;20.12;76.15
26635;BME280;14490;54.208;37.686;2022-07-21T11:05:17;98033.25;;;20.28;75.87
26635;BME280;14490;54.208;37.686;2022-07-21T11:08:11;98038.19;;;20.62;74.61
26635;BME280;14490;54.208;37.686;2022-07-21T11:10:45;98037.00;;;20.77;74.13
26635;BME280;14490;54.208;37.686;2022-07-21T11:13:14;97997.81;;;20.83;73.07
26635;BME280;14490;54.208;37.686;2022-07-21T11:15:47;98013.78;;;21.04;72.65
26635;BME280;14490;54.208;37.686;2022-07-21T11:18:21;98039.03;;;21.06;72.59
26635;BME280;14490;54.208;37.686;2022-07-21T11:21:11;98050.91;;;20.75;73.93
26635;BME280;14490;54.208;37.686;2022-07-21T11:23:43;98055.69;;;19.99;78.58
26635;BME280;14490;54.208;37.686;2022-07-21T11:26:14;98080.38;;;19.22;85.78
26635;BME280;14490;54.208;37.686;2022-07-21T11:28:44;98073.19;;;18.50;93.73
26635;BME280;14490;54.208;37.686;2022-07-21T11:31:16;98066.19;;;17.95;100.00
26635;BME280;14490;54.208;37.686;2022-07-21T11:33:47;98088.81;;;18.02;100.00
26635;BME280;14490;54.208;37.686;2022-07-21T11:36:28;98083.75;;;17.86;100.00
26635;BME280;14490;54.208;37.686;2022-07-21T11:38:59;98092.16;;;18.04;100.00
26635;BME280;14490;54.208;37.686;2022-07-21T11:41:30;98075.00;;;18.03;100.00
26635;BME280;14490;54.208;37.686;2022-07-21T11:43:58;98092.41;;;18.22;100.00
26635;BME280;14490;54.208;37.686;2022-07-21T11:46:26;98086.31;;;18.33;100.00
26635;BME280;14490;54.208;37.686;2022-07-21T11:49:04;98076.94;;;18.49;100.00
26635;BME280;14490;54.208;37.686;2022-07-21T11:51:33;98099.97;;;18.86;100.00
26635;BME280;14490;54.208;37.686;2022-07-21T11:54:01;98097.19;;;19.12;100.00
26635;BME280;14490;54.208;37.686;2022-07-21T11:56:36;98024.13;;;18.57;100.00
26635;BME280;14490;54.208;37.686;2022-07-21T11:59:11;98029.34;;;18.12;100.00
26635;BME280;14490;54.208;37.686;2022-07-21T12:01:49;98166.88;;;17.47;100.00
26635;BME280;14490;54.208;37.686;2022-07-21T12:04:42;98152.94;;;16.46;100.00
26635;BME280;14490;54.208;37.686;2022-07-21T12:07:18;98167.16;;;16.27;100.00
26635;BME280;14490;54.208;37.686;2022-07-21T12:09:50;98167.81;;;15.93;100.00
26635;BME280;14490;54.208;37.686;2022-07-21T12:12:29;98164.22;;;15.86;100.00
26635;BME280;14490;54.208;37.686;2022-07-21T12:15:12;98136.25;;;15.85;100.00
26635;BME280;14490;54.208;37.686;2022-07-21T12:17:43;98109.97;;;15.86;100.00
26635;BME280;14490;54.208;37.686;2022-07-21T12:20:13;98125.22;;;15.72;100.00
26635;BME280;14490;54.208;37.686;2022-07-21T12:22:44;98143.78;;;15.90;100.00
26635;BME280;14490;54.208;37.686;2022-07-21T12:25:30;98114.31;;;15.87;100.00
26635;BME280;14490;54.208;37.686;2022-07-21T12:28:00;98030.19;;;15.45;100.00
26635;BME280;14490;54.208;37.686;2022-07-21T12:30:36;98139.13;;;16.20;100.00
26635;BME280;14490;54.208;37.686;2022-07-21T12:33:10;98163.59;;;16.69;100.00
26635;BME280;14490;54.208;37.686;2022-07-21T12:35:41;98133.88;;;16.88;100.00
26635;BME280;14490;54.208;37.686;2022-07-21T12:38:13;98140.53;;;16.58;100.00
26635;BME280;14490;54.208;37.686;2022-07-21T12:40:43;98157.06;;;16.63;100.00
26635;BME280;14490;54.208;37.686;2022-07-21T12:43:14;98152.31;;;16.93;100.00
26635;BME280;14490;54.208;37.686;2022-07-21T12:45:51;98143.16;;;16.73;100.00
26635;BME280;14490;54.208;37.686;2022-07-21T12:48:24;98161.41;;;16.58;100.00
26635;BME280;14490;54.208;37.686;2022-07-21T12:51:04;98133.31;;;16.23;100.00
26635;BME280;14490;54.208;37.686;2022-07-21T12:53:41;98156.03;;;16.43;100.00
26635;BME280;14490;54.208;37.686;2022-07-21T12:56:12;98069.91;;;16.09;100.00
26635;BME280;14490;54.208;37.686;2022-07-21T12:58:42;98175.91;;;16.65;100.00
26635;BME280;14490;54.208;37.686;2022-07-21T13:01:11;98095.72;;;16.26;100.00